To NAV CANADA Home Page Login to a new session Search on AWWS site Feedback and Comments Disclaimer Vers la page française équivalente Tips FAQ What's new on the site To the Forecasts and Observations / NOTAM section To "File a Flight Plan" website Publications and other links Update of the User's profile FIC Telephone Numbers My Weather Data Folder Route Weather Data Regional Weather Data Local Weather Data To the Forecasts and Observations / NOTAM section
Request Generated 04/17/2014 at 09:33:27 UTC . Weather information available at that time is displayed.

METAR/TAF

MAYO/YT    

METAR CYMA 170900Z 02005KT 20SM FEW050 BKN090 02/M06 A2960 RMK SC2AS4
SLP048=
SPECI CYMA 170852Z 36004KT 20SM FEW050 BKN090 02/M07 A2961 RMK SC2AS4
SLP049=
METAR CYMA 170800Z 09004KT 20SM FEW050 BKN090 05/M09 A2961 RMK SC2AS5
SLP050=
METAR CYMA 170700Z 07007KT 20SM FEW050 OVC100 04/M08 A2962 RMK SC2AC6
SLP054=

TAF CYMA 170538Z 1706/1718 09005KT P6SM SCT050 SCT080 TEMPO 1706/1709
BKN050
FM170900 02006KT P6SM SCT020 BKN040 TEMPO 1709/1718 4SM -SHSN
BKN020
RMK NXT FCST BY 171200Z=
Your time UTC time
Weather data provided by Environment Canada and NAV CANADA